• Join FlightAware (Why Join?)
  • Login
  • US Flag 
10:54PM EDT


 

Airport Tracker/Info


-or-


 

Live Flight TrackerFlight Track Log ✈ SKW6306 ✈ 22-Jun-2013 ✈ CYXE - KDEN

Flight Track Log - Related Links

Times and Time Zones

All times are in EDT time to prevent confusion due to time zone crossing. See the SKW6306 flight status page for this flight to view local times or setup timezone preferences in your user account.

Time Position Orientation Groundspeed Altitude Reporting Facility
EDT Latitude Longitude Course Direction KTS MPH feet Rate Location/Type
04:51PM 52.1500 -106.7000 198° South 160 184 2,700  Level Winnipeg Center
04:52PM 52.1167 -106.6667 148° Southeast 220 253 4,500 2,160 Climbing Winnipeg Center
04:53PM 51.8612 -106.8667 199° South  Level FlightAware Approximate
04:53PM 52.0500 -106.7000 197° South 260 299 7,100  Level Winnipeg Center
04:54PM 51.7578 -106.9212 197° South  Level FlightAware Approximate
04:54PM 51.9833 -106.7500 205° Southwest 260 299 9,900  Level Winnipeg Center
04:55PM 51.6540 -106.9730 197° South  Level FlightAware Approximate
04:55PM 51.9167 -106.7833 197° South 270 311 12,500  Level Winnipeg Center
04:56PM 51.5518 -107.0258 198° South  Level FlightAware Approximate
04:56PM 51.8333 -106.8167 194° South 290 334 14,400  Level Winnipeg Center
04:57PM 51.7500 -106.8833 206° Southwest 310 357 16,200 1,680 Climbing Winnipeg Center
04:58PM 51.6667 -106.9167 194° South 320 368 17,800 1,560 Climbing Winnipeg Center
04:59PM 51.5833 -106.9833 206° Southwest 330 380 19,400 1,440 Climbing Winnipeg Center
05:00PM 51.4833 -107.0167 192° South 340 391 20,700 1,260 Climbing Winnipeg Center
05:01PM 51.4000 -107.0833 207° Southwest 350 403 22,000 1,200 Climbing Winnipeg Center
05:02PM 51.3167 -107.1333 201° Southwest 350 403 23,100 1,020 Climbing Winnipeg Center
05:03PM 51.2167 -107.2000 203° Southwest 360 414 24,100 1,020 Climbing Winnipeg Center
05:04PM 51.1167 -107.2500 197° South 370 426 25,200 1,020 Climbing Winnipeg Center
05:05PM 51.0167 -107.3167 203° Southwest 360 414 26,200 1,020 Climbing Winnipeg Center
05:06PM 50.9167 -107.3500 192° South 370 426 27,300 960 Climbing Winnipeg Center
05:07PM 50.8333 -107.4000 201° Southwest 370 426 28,200 720 Climbing Winnipeg Center
05:08PM 50.7167 -107.4667 200° South 370 426 28,800 540 Climbing Winnipeg Center
05:09PM 50.6333 -107.5167 201° Southwest 370 426 29,300 480 Climbing Winnipeg Center
05:10PM 50.5333 -107.5667 198° South 380 437 29,800 360 Climbing Winnipeg Center
05:11PM 50.4333 -107.6333 203° Southwest 380 437 30,100 600 Climbing Winnipeg Center
05:12PM 50.3333 -107.6833 198° South 390 449 31,000 840 Climbing Winnipeg Center
05:13PM 50.2333 -107.7167 192° South 380 437 31,800 960 Climbing Winnipeg Center
05:14PM 50.1333 -107.7500 192° South 370 426 33,000 600 Climbing Winnipeg Center
05:15PM 50.0167 -107.7500 180° South 370 426 33,000  Level Winnipeg Center
05:16PM 49.9333 -107.7500 180° South 370 426 33,000  Level Winnipeg Center
05:17PM 49.8167 -107.7833 190° South 380 437 33,000  Level Winnipeg Center
05:18PM 49.7167 -107.7833 180° South 390 449 33,000  Level Winnipeg Center
05:19PM 49.6000 -107.8000 185° South 390 449 33,000  Level Winnipeg Center
05:20PM 49.5000 -107.8000 180° South 400 460 33,000  Level Winnipeg Center
05:21PM 49.3833 -107.8000 180° South 400 460 33,000  Level Winnipeg Center
05:22PM 49.2667 -107.8333 191° South 400 460 33,000  Level Winnipeg Center
05:23PM 49.1667 -107.8333 180° South 390 449 33,000  Level Winnipeg Center
05:24PM 49.0500 -107.8667 191° South 390 449 33,000  Level Winnipeg Center
05:25PM 48.9500 -107.8667 180° South 390 449 33,000  Level Winnipeg Center
05:26PM 48.8333 -107.8833 185° South 390 449 33,000  Level Winnipeg Center
05:26PM 48.7822 -107.8617 164° South 388 447 33,000 -60 Level Salt Lake Center
05:28PM 48.6772 -107.8739 184° South 383 441 32,900  Descending Salt Lake Center
05:29PM 48.5714 -107.8856 184° South 381 438 33,000  Climbing Salt Lake Center
05:30PM 48.4678 -107.8972 184° South 378 435 33,000  Level Salt Lake Center
05:31PM 48.3422 -107.8956 179° South 377 434 33,000  Level Salt Lake Center
05:32PM 48.2364 -107.8647 169° South 384 442 33,000  Level Salt Lake Center
05:33PM 48.1336 -107.8375 170° South 381 438 33,000  Level Salt Lake Center
05:34PM 48.0300 -107.8094 170° South 380 437 33,000  Level Salt Lake Center
05:35PM 47.9267 -107.7819 170° South 378 435 33,000  Level Salt Lake Center
05:36PM 47.8219 -107.7539 170° South 380 437 33,000  Level Salt Lake Center
05:37PM 47.7192 -107.7269 170° South 378 435 33,000  Level Salt Lake Center
05:38PM 47.5964 -107.6956 170° South 375 432 33,000  Level Salt Lake Center
05:39PM 47.4936 -107.6675 170° South 376 433 33,000  Level Salt Lake Center
05:40PM 47.3944 -107.6406 170° South 370 426 33,000 -60 Level Salt Lake Center
05:41PM 47.2961 -107.6156 170° South 365 420 32,900  Descending Salt Lake Center
05:42PM 47.1875 -107.5878 170° South 362 417 33,000  Climbing Salt Lake Center
05:43PM 47.0903 -107.5628 170° South 359 413 33,000  Level Salt Lake Center
05:44PM 46.9925 -107.5367 170° South 357 411 33,000  Level Salt Lake Center
05:45PM 46.8919 -107.5117 170° South 362 417 33,000  Level Salt Lake Center
05:46PM 46.7931 -107.4864 170° South 363 418 33,000  Level Salt Lake Center
05:47PM 46.6931 -107.4622 171° South 365 420 33,000  Level Salt Lake Center
05:48PM 46.5747 -107.4308 170° South 362 417 33,000  Level Salt Lake Center
05:49PM 46.4722 -107.4047 170° South 366 421 33,000  Level Salt Lake Center
05:50PM 46.3658 -107.3767 170° South 365 420 33,000  Level Salt Lake Center
05:51PM 46.2661 -107.3519 170° South 366 421 33,000  Level Salt Lake Center
05:52PM 46.1572 -107.3247 170° South 370 426 33,000  Level Salt Lake Center
05:53PM 46.0558 -107.2997 170° South 372 428 33,000  Level Salt Lake Center
05:54PM 45.9547 -107.2739 170° South 374 430 33,000  Level Salt Lake Center
05:55PM 45.8442 -107.2469 170° South 372 428 33,000  Level Salt Lake Center
05:56PM 45.7450 -107.2233 171° South 367 422 33,000  Level Salt Lake Center
05:57PM 45.6361 -107.1956 170° South 370 426 33,000  Level Salt Lake Center
05:58PM 45.5342 -107.1706 170° South 374 430 33,000  Level Salt Lake Center
05:59PM 45.4394 -107.1472 170° South 376 433 33,000  Level Salt Lake Center
06:00PM 45.3197 -107.1208 171° South 374 430 33,000  Level Salt Lake Center
06:01PM 45.2194 -107.0956 170° South 379 436 33,000  Level Salt Lake Center
06:02PM 45.1192 -107.0719 171° South 380 437 33,000  Level Salt Lake Center
06:04PM 45.0008 -107.0453 171° South 384 442 33,000  Level Salt Lake Center
06:05PM 44.9014 -107.0200 170° South 380 437 33,000  Level Salt Lake Center
06:06PM 44.7839 -106.9911 170° South 382 440 33,000  Level Salt Lake Center
06:07PM 44.6831 -106.9689 171° South 383 441 33,000  Level Salt Lake Center
06:08PM 44.5661 -106.9397 170° South 383 441 33,000  Level Salt Lake Center
06:09PM 44.4647 -106.9169 171° South 385 443 33,000  Level Salt Lake Center
06:10PM 44.3647 -106.8911 170° South 383 441 33,000  Level Salt Lake Center
06:11PM 44.2428 -106.8650 171° South 392 451 33,000  Level Salt Lake Center
06:12PM 44.1567 -106.8439 170° South 392 451 33,000  Level Denver Center
06:13PM 44.0183 -106.8142 171° South 396 456 33,000  Level Salt Lake Center
06:14PM 43.9144 -106.7881 170° South 396 456 33,000  Level Salt Lake Center
06:15PM 43.8092 -106.7639 171° South 399 459 33,000  Level Salt Lake Center
06:16PM 43.6847 -106.7361 171° South 404 465 33,000  Level Salt Lake Center
06:17PM 43.5781 -106.7119 171° South 405 466 33,000  Level Salt Lake Center
06:18PM 43.4533 -106.6842 171° South 407 468 33,000  Level Salt Lake Center
06:19PM 43.3467 -106.6600 171° South 407 468 33,000  Level Salt Lake Center
06:20PM 43.2217 -106.6303 170° South 408 470 33,000 -540 Level Salt Lake Center
06:21PM 43.1122 -106.6061 171° South 414 476 32,000 -1,020 Descending Salt Lake Center
06:22PM 43.0011 -106.5814 171° South 419 482 31,000 -540 Descending Salt Lake Center
06:23PM 42.8786 -106.5542 171° South 406 467 31,000  Level Salt Lake Center
06:24PM 42.7786 -106.5314 171° South 390 449 31,000  Level Salt Lake Center
06:25PM 42.6581 -106.5053 171° South 390 449 31,000  Level Salt Lake Center
06:26PM 42.5136 -106.4728 171° South 405 466 31,000  Level Denver Center
06:27PM 42.4242 -106.4528 171° South 408 470 31,000  Level Denver Center
06:28PM 42.2811 -106.4225 171° South 409 471 31,000  Level Denver Center
06:29PM 42.1722 -106.3978 170° South 413 475 31,000  Level Denver Center
06:30PM 42.0483 -106.3483 163° South 427 491 31,000  Level Denver Center
06:32PM 41.9433 -106.2900 158° South 427 491 31,000  Level Denver Center
06:33PM 41.8211 -106.2236 158° South 425 489 31,000  Level Denver Center
06:34PM 41.7164 -106.1658 158° South 426 490 31,000  Level Denver Center
06:35PM 41.6283 -106.1172 158° South 427 491 31,000  Level Denver Center
06:36PM 41.4881 -106.0408 158° South 428 493 31,000  Level Denver Center
06:37PM 41.3825 -105.9839 158° South 428 493 31,000  Level Denver Center
06:38PM 41.2583 -105.9167 158° South 430 495 31,000  Level Denver Center
06:39PM 41.1519 -105.8597 158° South 431 496 31,000  Level Denver Center
06:40PM 41.0283 -105.7925 158° South 432 497 31,000  Level Denver Center
06:41PM 40.9186 -105.7356 159° South 431 496 31,000 -420 Level Denver Center
06:42PM 40.8072 -105.6753 158° South 433 498 30,200 -1,560 Descending Denver Center
06:43PM 40.6964 -105.6167 158° South 432 497 27,500 -2,520 Descending Denver Center
06:44PM 40.5639 -105.5461 158° South 429 494 24,000 -3,180 Descending Denver Center
06:45PM 40.4375 -105.4800 158° South 409 471 20,400 -2,040 Descending Denver Center
06:46PM 40.3450 -105.4156 152° Southeast 331 381 19,900 -1,380 Descending Denver Center
06:47PM 40.2786 -105.3136 130° Southeast 340 391 17,600 -2,100 Descending Denver Center
06:48PM 40.2161 -105.2172 130° Southeast 347 399 15,600 -1,440 Descending Denver Center
06:49PM 40.1656 -105.1364 129° Southeast 341 392 14,700 -1,320 Descending Denver Center
06:50PM 40.0917 -105.0222 130° Southeast 334 384 13,000 -840 Descending Denver Center
06:51PM 40.0353 -104.9342 130° Southeast 317 365 13,000 -300 Level Denver Center
06:52PM 39.9814 -104.8503 130° Southeast 304 350 12,500 -840 Descending Denver Center
06:53PM 39.9022 -104.8058 157° South 296 341 11,400 -780 Descending Denver Center
06:55PM 39.8236 -104.8089 182° South 286 329 11,000 -480 Descending Denver Center
06:56PM 39.7547 -104.8097 181° South 228 262 10,500 -780 Descending Denver Center
06:57PM 39.6914 -104.8100 180° South 228 262 9,500 -780 Descending Denver Center
06:58PM 39.6436 -104.7761 151° Southeast 208 239 9,000 -300 Descending Denver Center
06:59PM 39.6764 -104.7203 53° Northeast 199 229 9,000 -60 Level Denver Center
07:00PM 39.7183 -104.6889 30° Northeast 180 207 8,900 -120 Descending Denver Center